createdAt,value
2023-03-26T00:00:44.109Z,65.16
2023-03-26T00:03:11.894Z,64.77
2023-03-26T00:05:39.590Z,65.03
2023-03-26T00:08:08.775Z,64.98
2023-03-26T00:10:39.891Z,64.07
2023-03-26T00:13:06.864Z,64.14
2023-03-26T00:15:34.984Z,63.50
2023-03-26T00:18:01.764Z,63.23
2023-03-26T00:20:29.689Z,64.10
2023-03-26T00:22:56.504Z,66.54
2023-03-26T00:25:23.698Z,64.77
2023-03-26T00:27:50.733Z,64.77
2023-03-26T00:30:17.274Z,67.37
2023-03-26T00:32:44.122Z,67.00
2023-03-26T00:35:20.757Z,65.32
2023-03-26T00:37:47.850Z,66.00
2023-03-26T00:40:14.412Z,65.19
2023-03-26T00:42:42.468Z,65.98
2023-03-26T00:45:09.497Z,65.60
2023-03-26T00:47:36.568Z,64.76
2023-03-26T00:50:04.337Z,63.65
2023-03-26T00:52:31.694Z,63.20
2023-03-26T00:54:58.235Z,63.44
2023-03-26T00:57:35.498Z,63.73
2023-03-26T01:00:07.011Z,63.18
2023-03-26T01:02:33.584Z,63.55
2023-03-26T01:05:02.940Z,63.04
2023-03-26T01:07:29.964Z,63.36
2023-03-26T01:09:59.299Z,62.79
2023-03-26T01:12:28.274Z,63.51
2023-03-26T01:14:57.176Z,63.43
2023-03-26T01:17:24.113Z,63.94
2023-03-26T01:20:15.141Z,64.16
2023-03-26T01:22:46.434Z,64.52
2023-03-26T01:25:13.453Z,65.77
2023-03-26T01:27:43.427Z,64.93
2023-03-26T01:30:34.401Z,65.75
2023-03-26T01:33:14.152Z,65.44
2023-03-26T01:36:06.071Z,64.45
2023-03-26T01:38:46.788Z,64.29
2023-03-26T01:41:51.950Z,65.83
2023-03-26T01:44:18.389Z,65.19
2023-03-26T01:46:45.550Z,65.24
2023-03-26T01:49:13.530Z,65.43
2023-03-26T01:51:42.214Z,65.62
2023-03-26T01:54:12.260Z,64.88
2023-03-26T01:57:03.238Z,63.84
2023-03-26T01:59:47.788Z,63.34
2023-03-26T02:02:18.498Z,62.99
2023-03-26T02:05:09.610Z,62.62
2023-03-26T02:07:47.913Z,62.17
2023-03-26T02:10:19.364Z,61.84
2023-03-26T02:12:46.108Z,62.67
2023-03-26T02:15:12.921Z,62.09
2023-03-26T02:17:40.379Z,62.10
2023-03-26T02:20:12.385Z,61.69
2023-03-26T02:22:45.598Z,61.26
2023-03-26T02:25:18.758Z,61.68
2023-03-26T02:27:47.170Z,61.94
2023-03-26T02:30:17.994Z,61.93
2023-03-26T02:32:47.609Z,62.75
2023-03-26T02:35:14.219Z,62.19
2023-03-26T02:37:42.037Z,62.25
2023-03-26T02:40:14.174Z,62.33
2023-03-26T02:42:43.018Z,62.11
2023-03-26T02:45:09.858Z,63.58
2023-03-26T02:47:57.528Z,63.08
2023-03-26T02:50:43.425Z,64.59
2023-03-26T02:53:37.603Z,64.50
2023-03-26T02:56:30.240Z,64.05
2023-03-26T02:59:14.825Z,64.35
2023-03-26T03:01:44.083Z,64.19
2023-03-26T03:04:13.245Z,63.99
2023-03-26T03:06:40.903Z,64.09
2023-03-26T03:09:11.332Z,64.12
2023-03-26T03:11:39.526Z,63.98
2023-03-26T03:14:07.531Z,64.16
2023-03-26T03:16:34.937Z,64.05
2023-03-26T03:19:09.618Z,63.21
2023-03-26T03:21:37.741Z,63.62
2023-03-26T03:24:05.146Z,62.82
2023-03-26T03:26:36.367Z,62.67
2023-03-26T03:29:14.261Z,62.32
2023-03-26T03:31:41.694Z,63.19
2023-03-26T03:34:18.558Z,62.79
2023-03-26T03:36:50.115Z,62.15
2023-03-26T03:39:32.937Z,62.18
2023-03-26T03:41:59.605Z,62.25
2023-03-26T03:44:26.142Z,61.98
2023-03-26T03:46:55.530Z,61.54
2023-03-26T03:49:23.032Z,62.37
2023-03-26T03:51:49.548Z,61.37
2023-03-26T03:54:24.894Z,62.08
2023-03-26T03:57:18.664Z,61.67
2023-03-26T04:00:01.434Z,61.87
2023-03-26T04:02:43.020Z,61.92
2023-03-26T04:05:11.690Z,62.14
2023-03-26T04:07:43.900Z,62.17
2023-03-26T04:10:43.881Z,61.80
2023-03-26T04:13:16.562Z,62.08
2023-03-26T04:16:15.470Z,61.55
2023-03-26T04:18:42.089Z,61.61
2023-03-26T04:21:15.844Z,62.11
2023-03-26T04:23:44.335Z,62.23
2023-03-26T04:26:23.899Z,62.10
2023-03-26T04:29:11.887Z,61.50
2023-03-26T04:31:38.741Z,61.22
2023-03-26T04:34:08.520Z,61.65
2023-03-26T04:36:43.374Z,61.83
2023-03-26T04:39:12.149Z,62.17
2023-03-26T04:42:04.771Z,62.22
2023-03-26T04:44:43.217Z,62.68
2023-03-26T04:47:13.129Z,62.75
2023-03-26T04:49:46.179Z,62.36
2023-03-26T04:52:15.358Z,62.45
2023-03-26T04:54:57.175Z,61.73
2023-03-26T04:57:29.425Z,62.05
2023-03-26T05:00:11.851Z,62.20
2023-03-26T05:02:39.901Z,61.64
2023-03-26T05:05:06.522Z,61.29
2023-03-26T05:07:33.862Z,62.65
2023-03-26T05:10:03.317Z,61.79
2023-03-26T05:12:35.669Z,64.92
2023-03-26T05:15:06.871Z,63.87
2023-03-26T05:17:59.616Z,64.90
2023-03-26T05:20:31.086Z,65.13
2023-03-26T05:22:57.666Z,65.62
2023-03-26T05:25:34.742Z,64.59
2023-03-26T05:28:02.865Z,64.57
2023-03-26T05:30:39.084Z,63.76
2023-03-26T05:33:06.577Z,62.41
2023-03-26T05:35:43.465Z,63.52
2023-03-26T05:38:10.787Z,64.26
2023-03-26T05:40:37.319Z,62.96
2023-03-26T05:43:06.069Z,61.89
2023-03-26T05:45:39.117Z,62.00
2023-03-26T05:48:32.037Z,62.07
2023-03-26T05:50:59.039Z,62.17
2023-03-26T05:53:28.147Z,61.52
2023-03-26T05:56:33.152Z,61.94
2023-03-26T05:59:38.022Z,62.73
2023-03-26T06:02:23.858Z,61.80
2023-03-26T06:05:13.431Z,62.25
2023-03-26T06:08:01.476Z,62.38
2023-03-26T06:10:38.503Z,63.41
2023-03-26T06:13:05.703Z,65.87
2023-03-26T06:15:35.251Z,63.50
2023-03-26T06:18:08.392Z,62.24
2023-03-26T06:20:58.046Z,62.70
2023-03-26T06:23:38.794Z,62.21
2023-03-26T06:26:10.610Z,61.53
2023-03-26T06:28:45.768Z,60.33
2023-03-26T06:31:30.813Z,60.55
2023-03-26T06:34:13.013Z,60.93
2023-03-26T06:36:39.529Z,60.63
2023-03-26T06:39:07.805Z,60.59
2023-03-26T06:41:36.102Z,59.71
2023-03-26T06:44:19.909Z,60.38
2023-03-26T06:47:04.819Z,59.81
2023-03-26T06:50:04.280Z,60.24
2023-03-26T06:52:42.574Z,61.74
2023-03-26T06:55:26.162Z,61.01
2023-03-26T06:58:12.841Z,61.19
2023-03-26T07:00:39.497Z,61.94
2023-03-26T07:03:26.331Z,61.62
2023-03-26T07:06:11.283Z,61.26
2023-03-26T07:08:57.379Z,61.50
2023-03-26T07:11:27.071Z,60.08
2023-03-26T07:14:12.234Z,61.18
2023-03-26T07:16:47.727Z,61.00
2023-03-26T07:19:33.803Z,60.87
2023-03-26T07:22:00.949Z,61.19
2023-03-26T07:24:59.784Z,60.56
2023-03-26T07:27:52.291Z,59.87
2023-03-26T07:30:37.183Z,60.27
2023-03-26T07:33:29.457Z,59.72
2023-03-26T07:36:54.788Z,60.34
2023-03-26T07:39:39.212Z,60.60
2023-03-26T07:43:01.873Z,60.23
2023-03-26T07:45:57.671Z,61.97
2023-03-26T07:48:51.891Z,62.17
2023-03-26T07:51:40.503Z,61.80
2023-03-26T07:54:16.117Z,62.18
2023-03-26T07:57:05.070Z,62.75
2023-03-26T07:59:40.891Z,63.99
2023-03-26T08:02:51.499Z,66.13
2023-03-26T08:05:44.590Z,66.79
2023-03-26T08:08:53.381Z,67.12
2023-03-26T08:12:15.363Z,66.42
2023-03-26T08:15:14.278Z,66.69
2023-03-26T08:17:54.597Z,67.00
2023-03-26T08:20:34.261Z,67.16
2023-03-26T08:23:10.849Z,67.27
2023-03-26T08:25:50.001Z,67.76
2023-03-26T08:28:37.879Z,68.19
2023-03-26T08:31:05.951Z,69.00
2023-03-26T08:33:38.269Z,68.21
2023-03-26T08:36:06.166Z,68.14
2023-03-26T08:38:32.845Z,67.13
2023-03-26T08:41:08.155Z,67.33
2023-03-26T08:43:46.924Z,68.11
2023-03-26T08:46:51.286Z,67.82
2023-03-26T08:49:27.870Z,66.91
2023-03-26T08:52:33.799Z,68.42
2023-03-26T08:55:26.639Z,67.54
2023-03-26T08:58:25.554Z,68.54
2023-03-26T09:01:37.269Z,67.33
2023-03-26T09:04:36.483Z,67.94
2023-03-26T09:07:34.043Z,67.86
2023-03-26T09:10:15.809Z,67.32
2023-03-26T09:13:16.315Z,69.86
2023-03-26T09:15:48.742Z,68.33
2023-03-26T09:18:37.088Z,67.99
2023-03-26T09:21:24.892Z,67.92
2023-03-26T09:24:14.160Z,67.46
2023-03-26T09:27:07.956Z,69.35
2023-03-26T09:29:54.930Z,67.80
2023-03-26T09:32:48.060Z,67.88
2023-03-26T09:35:36.350Z,67.04
2023-03-26T09:38:26.624Z,69.45
2023-03-26T09:41:02.366Z,70.74
2023-03-26T09:44:08.224Z,71.58
2023-03-26T09:46:51.812Z,73.99
2023-03-26T09:49:36.350Z,73.82
2023-03-26T09:52:38.091Z,72.03
2023-03-26T09:55:26.230Z,72.77
2023-03-26T09:58:14.708Z,71.63
2023-03-26T10:00:45.810Z,71.90
2023-03-26T10:03:26.968Z,72.11
2023-03-26T10:06:12.511Z,70.16
2023-03-26T10:08:50.993Z,70.16
2023-03-26T10:11:54.569Z,69.82
2023-03-26T10:18:38.582Z,69.20
2023-03-26T10:21:09.161Z,69.28
2023-03-26T10:23:38.904Z,68.92
2023-03-26T10:26:21.718Z,67.85
2023-03-26T10:28:56.829Z,67.91
2023-03-26T10:31:37.103Z,67.13
2023-03-26T10:34:29.226Z,67.06
2023-03-26T10:37:20.983Z,67.56
2023-03-26T10:40:09.669Z,66.46
2023-03-26T10:43:05.426Z,64.10
2023-03-26T10:45:46.884Z,65.29
2023-03-26T11:00:44.120Z,62.76
2023-03-26T11:08:31.682Z,59.11
2023-03-26T11:11:48.525Z,56.68
2023-03-26T11:14:34.505Z,56.29
2023-03-26T11:17:40.216Z,54.32
2023-03-26T11:20:15.904Z,54.98
2023-03-26T11:23:02.757Z,53.36
2023-03-26T11:25:44.209Z,52.39
2023-03-26T11:28:32.466Z,51.41
2023-03-26T11:31:17.197Z,52.90
2023-03-26T11:33:50.493Z,51.45
2023-03-26T11:36:21.415Z,51.57
2023-03-26T11:38:49.748Z,51.88
2023-03-26T11:41:26.458Z,50.81
2023-03-26T11:44:14.762Z,49.78
2023-03-26T11:46:44.277Z,49.85
2023-03-26T11:49:13.136Z,50.14
2023-03-26T11:51:41.275Z,51.87
2023-03-26T11:54:10.839Z,51.12
2023-03-26T11:57:04.389Z,52.74
2023-03-26T11:59:56.673Z,52.11
2023-03-26T12:02:38.793Z,52.71
2023-03-26T12:05:15.685Z,54.63
2023-03-26T12:07:46.581Z,57.57
2023-03-26T12:10:25.616Z,59.31
2023-03-26T12:12:56.392Z,59.68
2023-03-26T12:15:23.028Z,59.74
2023-03-26T12:17:53.691Z,61.27
2023-03-26T12:20:26.382Z,64.58
2023-03-26T12:23:00.793Z,67.60
2023-03-26T12:25:37.739Z,67.65
2023-03-26T12:28:13.833Z,68.45
2023-03-26T12:30:42.297Z,67.93
2023-03-26T12:33:28.357Z,67.76
2023-03-26T12:35:58.064Z,66.02
2023-03-26T12:38:34.784Z,65.71
2023-03-26T12:43:51.320Z,63.54
2023-03-26T12:44:50.183Z,62.48
2023-03-26T12:47:57.876Z,61.36
2023-03-26T12:50:14.404Z,60.43
2023-03-26T12:53:19.197Z,60.09
2023-03-26T12:56:00.616Z,60.57
2023-03-26T12:58:41.090Z,60.25
2023-03-26T13:01:15.882Z,59.15
2023-03-26T13:03:59.162Z,59.41
2023-03-26T13:07:00.958Z,58.85
2023-03-26T13:09:52.768Z,56.92
2023-03-26T13:12:40.429Z,57.24
2023-03-26T13:15:33.108Z,56.85
2023-03-26T13:18:35.678Z,56.44
2023-03-26T13:21:11.193Z,55.04
2023-03-26T13:24:04.199Z,54.05
2023-03-26T13:26:41.729Z,54.51
2023-03-26T13:29:17.485Z,53.36
2023-03-26T13:32:09.199Z,52.79
2023-03-26T13:35:05.465Z,52.24
2023-03-26T13:37:41.127Z,52.07
2023-03-26T13:40:22.220Z,53.02
2023-03-26T13:43:31.010Z,53.64
2023-03-26T13:46:04.188Z,52.45
2023-03-26T13:48:40.198Z,51.59
2023-03-26T13:51:16.883Z,50.48
2023-03-26T13:53:48.848Z,51.86
2023-03-26T13:56:17.663Z,51.16
2023-03-26T13:58:52.495Z,51.66
2023-03-26T14:01:34.963Z,51.86
2023-03-26T14:04:19.490Z,51.78
2023-03-26T14:07:07.178Z,52.35
2023-03-26T14:09:45.612Z,51.68
2023-03-26T14:12:21.455Z,52.13
2023-03-26T14:14:50.904Z,52.77
2023-03-26T14:17:22.549Z,51.35
2023-03-26T14:20:28.015Z,50.27
2023-03-26T14:23:04.580Z,51.71
2023-03-26T14:25:56.259Z,52.86
2023-03-26T14:29:04.482Z,51.73
2023-03-26T14:31:56.779Z,52.28
2023-03-26T14:34:34.700Z,53.44
2023-03-26T14:37:29.567Z,52.99
2023-03-26T14:40:23.836Z,53.18
2023-03-26T14:42:56.528Z,52.75
2023-03-26T14:45:49.772Z,55.58
2023-03-26T14:48:44.764Z,57.94
2023-03-26T14:51:30.332Z,60.04
2023-03-26T14:54:01.268Z,63.43
2023-03-26T14:56:39.252Z,64.73
2023-03-26T14:59:47.644Z,66.99
2023-03-26T15:02:20.601Z,68.60
2023-03-26T15:04:55.728Z,67.11
2023-03-26T15:07:41.407Z,65.81
2023-03-26T15:10:17.256Z,65.03
2023-03-26T15:13:05.766Z,64.72
2023-03-26T15:15:54.165Z,66.05
2023-03-26T15:18:44.576Z,66.22
2023-03-26T15:21:17.396Z,66.75
2023-03-26T15:24:06.622Z,66.47
2023-03-26T15:27:01.628Z,65.92
2023-03-26T15:29:35.504Z,67.35
2023-03-26T15:32:26.357Z,65.90
2023-03-26T15:35:06.697Z,66.84
2023-03-26T15:38:21.156Z,65.61
2023-03-26T15:40:54.463Z,67.57
2023-03-26T15:43:21.446Z,67.00
2023-03-26T15:45:53.918Z,68.47
2023-03-26T15:48:37.446Z,69.56
2023-03-26T15:51:16.561Z,68.36
2023-03-26T15:54:00.567Z,67.74
2023-03-26T15:56:27.394Z,67.30
2023-03-26T15:59:07.298Z,69.24
2023-03-26T16:02:09.937Z,70.01
2023-03-26T16:04:54.875Z,68.07
2023-03-26T16:07:24.256Z,69.97
2023-03-26T16:09:57.087Z,70.02
2023-03-26T16:12:27.489Z,69.76
2023-03-26T16:15:07.228Z,68.08
2023-03-26T16:18:19.474Z,68.47
2023-03-26T16:20:57.121Z,67.23
2023-03-26T16:23:47.844Z,68.29
2023-03-26T16:26:27.595Z,66.52
2023-03-26T16:29:29.246Z,67.17
2023-03-26T16:32:16.986Z,68.01
2023-03-26T16:35:00.325Z,67.42
2023-03-26T16:37:33.695Z,67.43
2023-03-26T16:40:18.520Z,66.87
2023-03-26T16:43:03.340Z,65.98
2023-03-26T16:45:45.351Z,67.12
2023-03-26T16:48:30.548Z,65.98
2023-03-26T16:51:21.950Z,65.25
2023-03-26T16:54:14.611Z,66.86
2023-03-26T16:57:01.998Z,66.22
2023-03-26T17:00:05.456Z,65.79
2023-03-26T17:03:04.441Z,66.32
2023-03-26T17:05:37.681Z,66.25
2023-03-26T17:08:36.058Z,66.00
2023-03-26T17:11:10.902Z,64.87
2023-03-26T17:13:48.984Z,66.45
2023-03-26T17:16:22.221Z,64.63
2023-03-26T17:19:00.660Z,65.21
2023-03-26T17:21:56.263Z,65.84
2023-03-26T17:24:49.678Z,65.41
2023-03-26T17:27:47.280Z,65.35
2023-03-26T17:30:35.938Z,65.06
2023-03-26T17:33:02.466Z,64.40
2023-03-26T17:35:36.533Z,64.80
2023-03-26T17:38:04.031Z,64.36
2023-03-26T17:40:45.711Z,63.97
2023-03-26T17:43:32.193Z,63.34
2023-03-26T17:46:02.683Z,63.78
2023-03-26T17:48:35.373Z,63.78
2023-03-26T17:51:06.432Z,63.33
2023-03-26T17:53:34.858Z,64.72
2023-03-26T17:56:06.503Z,63.40
2023-03-26T17:58:37.617Z,63.73
2023-03-26T18:01:05.034Z,65.23
2023-03-26T18:03:45.239Z,64.04
2023-03-26T18:06:14.575Z,65.36
2023-03-26T18:08:47.569Z,64.13
2023-03-26T18:11:29.234Z,63.63
2023-03-26T18:14:23.576Z,62.74
2023-03-26T18:17:01.351Z,64.35
2023-03-26T18:19:28.781Z,64.03
2023-03-26T18:22:00.374Z,63.79
2023-03-26T18:24:30.439Z,63.07
2023-03-26T18:27:01.441Z,63.24
2023-03-26T18:29:30.540Z,63.16
2023-03-26T18:32:19.736Z,63.70
2023-03-26T18:34:52.516Z,63.78
2023-03-26T18:37:34.316Z,63.02
2023-03-26T18:40:16.233Z,62.05
2023-03-26T18:42:49.176Z,63.88
2023-03-26T18:45:27.803Z,62.44
2023-03-26T18:48:00.414Z,62.13
2023-03-26T18:50:30.960Z,62.84
2023-03-26T18:52:59.595Z,61.67
2023-03-26T18:55:27.823Z,61.26
2023-03-26T18:57:54.396Z,61.23
2023-03-26T19:00:23.205Z,62.76
2023-03-26T19:02:54.552Z,62.38
2023-03-26T19:05:21.217Z,62.87
2023-03-26T19:07:48.074Z,63.37
2023-03-26T19:10:18.870Z,64.13
2023-03-26T19:12:46.413Z,62.88
2023-03-26T19:15:15.986Z,63.33
2023-03-26T19:17:51.420Z,63.65
2023-03-26T19:20:20.975Z,62.81
2023-03-26T19:22:47.886Z,62.69
2023-03-26T19:25:39.167Z,62.54
2023-03-26T19:28:07.029Z,64.32
2023-03-26T19:30:36.102Z,63.53
2023-03-26T19:33:13.964Z,63.50
2023-03-26T19:35:42.176Z,63.90
2023-03-26T19:38:22.587Z,63.85
2023-03-26T19:40:50.871Z,62.10
2023-03-26T19:43:17.848Z,61.39
2023-03-26T19:45:59.922Z,62.15
2023-03-26T19:48:45.277Z,62.67
2023-03-26T19:51:25.778Z,62.31
2023-03-26T19:53:55.465Z,62.97
2023-03-26T19:56:22.795Z,64.79
2023-03-26T19:58:50.323Z,64.08
2023-03-26T20:01:19.333Z,63.48
2023-03-26T20:03:48.112Z,63.32
2023-03-26T20:06:17.269Z,63.76
2023-03-26T20:08:44.069Z,64.75
2023-03-26T20:11:20.189Z,63.44
2023-03-26T20:13:46.864Z,62.22
2023-03-26T20:16:23.490Z,63.67
2023-03-26T20:18:53.792Z,63.54
2023-03-26T20:21:21.052Z,63.25
2023-03-26T20:23:47.963Z,62.41
2023-03-26T20:26:16.512Z,63.90
2023-03-26T20:28:48.154Z,62.62
2023-03-26T20:31:25.084Z,63.78
2023-03-26T20:33:53.103Z,62.84
2023-03-26T20:36:33.020Z,61.44
2023-03-26T20:39:05.848Z,62.25
2023-03-26T20:41:33.721Z,62.85
2023-03-26T20:44:00.628Z,63.17
2023-03-26T20:46:31.236Z,61.78
2023-03-26T20:48:58.924Z,63.57
2023-03-26T20:51:27.981Z,62.81
2023-03-26T20:53:55.241Z,62.14
2023-03-26T20:56:22.709Z,62.76
2023-03-26T20:58:54.716Z,63.81
2023-03-26T21:01:27.775Z,63.01
2023-03-26T21:03:54.458Z,61.78
2023-03-26T21:06:20.987Z,63.42
2023-03-26T21:08:47.783Z,62.34
2023-03-26T21:11:27.233Z,61.75
2023-03-26T21:14:00.899Z,62.14
2023-03-26T21:16:27.815Z,61.53
2023-03-26T21:18:54.555Z,60.61
2023-03-26T21:21:43.656Z,61.53
2023-03-26T21:24:33.212Z,61.27
2023-03-26T21:27:15.136Z,62.36
2023-03-26T21:29:41.951Z,62.43
2023-03-26T21:32:11.055Z,63.18
2023-03-26T21:34:42.090Z,64.33
2023-03-26T21:37:15.150Z,66.28
2023-03-26T21:39:44.788Z,66.51
2023-03-26T21:42:12.799Z,66.60
2023-03-26T21:44:39.731Z,67.15
2023-03-26T21:47:09.967Z,67.01
2023-03-26T21:49:37.260Z,67.93
2023-03-26T21:52:04.296Z,68.69
2023-03-26T21:54:32.060Z,68.96
2023-03-26T21:57:15.932Z,69.36
2023-03-26T21:59:47.936Z,69.46
2023-03-26T22:02:46.938Z,69.98
2023-03-26T22:05:18.138Z,70.41
2023-03-26T22:07:59.947Z,69.42
2023-03-26T22:10:27.042Z,69.07
2023-03-26T22:12:53.847Z,69.19
2023-03-26T22:15:20.464Z,70.51
2023-03-26T22:17:54.079Z,71.06
2023-03-26T22:20:24.378Z,71.55
2023-03-26T22:22:53.352Z,71.05
2023-03-26T22:25:21.824Z,71.29
2023-03-26T22:27:49.903Z,71.25
2023-03-26T22:30:16.432Z,69.67
2023-03-26T22:32:45.778Z,69.48
2023-03-26T22:35:13.037Z,71.06
2023-03-26T22:37:39.947Z,68.80
2023-03-26T22:40:12.918Z,69.01
2023-03-26T22:42:40.176Z,69.38
2023-03-26T22:45:09.167Z,69.69
2023-03-26T22:47:35.791Z,71.58
2023-03-26T22:50:04.095Z,71.40
2023-03-26T22:52:30.693Z,73.18
2023-03-26T22:54:57.290Z,72.17
2023-03-26T22:57:24.371Z,72.15
2023-03-26T22:59:52.022Z,71.41
2023-03-26T23:02:18.946Z,74.55
2023-03-26T23:04:46.307Z,73.14
2023-03-26T23:07:13.019Z,73.16
2023-03-26T23:09:39.521Z,72.88
2023-03-26T23:12:06.707Z,72.46
2023-03-26T23:14:33.323Z,71.22
2023-03-26T23:17:00.505Z,72.82
2023-03-26T23:19:27.090Z,73.06
2023-03-26T23:21:53.589Z,73.06
2023-03-26T23:24:20.120Z,75.74
2023-03-26T23:29:16.326Z,75.11
2023-03-26T23:31:42.881Z,75.20
2023-03-26T23:34:10.074Z,75.38
2023-03-26T23:36:36.622Z,73.29
2023-03-26T23:39:04.816Z,75.65
2023-03-26T23:41:31.463Z,75.79
2023-03-26T23:43:57.999Z,75.94
2023-03-26T23:46:30.832Z,77.20
2023-03-26T23:49:03.872Z,74.80
2023-03-26T23:51:31.424Z,75.01
2023-03-26T23:53:58.483Z,73.48
2023-03-26T23:56:27.560Z,75.88
2023-03-26T23:58:55.153Z,77.77
